sensor_id;sensor_type;location;lat;lon;timestamp;pressure;altitude;pressure_sealevel;temperature;humidity
67840;BME280;54636;51.684;5.142;2023-04-15T00:00:35;100789.91;;;7.98;81.83
67840;BME280;54636;51.684;5.142;2023-04-15T00:03:01;100783.91;;;7.79;82.36
67840;BME280;54636;51.684;5.142;2023-04-15T00:05:29;100788.56;;;7.78;82.65
67840;BME280;54636;51.684;5.142;2023-04-15T00:07:54;100817.00;;;7.88;82.75
67840;BME280;54636;51.684;5.142;2023-04-15T00:10:20;100770.09;;;7.53;83.06
67840;BME280;54636;51.684;5.142;2023-04-15T00:12:45;100769.91;;;7.56;83.17
67840;BME280;54636;51.684;5.142;2023-04-15T00:15:11;100794.31;;;7.71;83.17
67840;BME280;54636;51.684;5.142;2023-04-15T00:17:36;100770.50;;;7.60;82.45
67840;BME280;54636;51.684;5.142;2023-04-15T00:20:04;100811.31;;;7.86;82.22
67840;BME280;54636;51.684;5.142;2023-04-15T00:22:31;100807.41;;;7.87;82.38
67840;BME280;54636;51.684;5.142;2023-04-15T00:24:56;100797.19;;;7.68;82.64
67840;BME280;54636;51.684;5.142;2023-04-15T00:27:22;100791.19;;;7.64;82.55
67840;BME280;54636;51.684;5.142;2023-04-15T00:29:48;100775.94;;;7.51;82.84
67840;BME280;54636;51.684;5.142;2023-04-15T00:32:13;100765.88;;;7.52;82.17
67840;BME280;54636;51.684;5.142;2023-04-15T00:34:39;100799.59;;;7.66;82.63
67840;BME280;54636;51.684;5.142;2023-04-15T00:37:05;100806.56;;;7.57;83.29
67840;BME280;54636;51.684;5.142;2023-04-15T00:39:30;100814.91;;;7.69;82.55
67840;BME280;54636;51.684;5.142;2023-04-15T00:41:56;100774.09;;;7.34;82.88
67840;BME280;54636;51.684;5.142;2023-04-15T00:44:22;100803.28;;;7.53;82.98
67840;BME280;54636;51.684;5.142;2023-04-15T00:46:50;100783.34;;;7.42;82.98
67840;BME280;54636;51.684;5.142;2023-04-15T00:49:15;100821.22;;;7.66;83.07
67840;BME280;54636;51.684;5.142;2023-04-15T00:51:42;100771.31;;;7.19;83.19
67840;BME280;54636;51.684;5.142;2023-04-15T00:54:09;100811.47;;;7.35;84.03
67840;BME280;54636;51.684;5.142;2023-04-15T00:56:36;100808.81;;;7.26;84.44
67840;BME280;54636;51.684;5.142;2023-04-15T00:59:03;100765.59;;;6.93;85.48
67840;BME280;54636;51.684;5.142;2023-04-15T01:01:28;100808.59;;;7.06;85.43
67840;BME280;54636;51.684;5.142;2023-04-15T01:03:55;100763.56;;;6.70;85.55
67840;BME280;54636;51.684;5.142;2023-04-15T01:06:22;100808.50;;;6.91;86.28
67840;BME280;54636;51.684;5.142;2023-04-15T01:08:47;100768.84;;;6.55;86.71
67840;BME280;54636;51.684;5.142;2023-04-15T01:11:14;100781.13;;;6.56;87.58
67840;BME280;54636;51.684;5.142;2023-04-15T01:13:39;100784.63;;;6.47;87.88
67840;BME280;54636;51.684;5.142;2023-04-15T01:16:07;100793.75;;;6.50;87.47
67840;BME280;54636;51.684;5.142;2023-04-15T01:18:33;100810.81;;;6.56;89.73
67840;BME280;54636;51.684;5.142;2023-04-15T01:21:02;100790.16;;;6.35;88.95
67840;BME280;54636;51.684;5.142;2023-04-15T01:23:29;100809.47;;;6.51;86.46
67840;BME280;54636;51.684;5.142;2023-04-15T01:25:55;100759.00;;;6.15;88.12
67840;BME280;54636;51.684;5.142;2023-04-15T01:28:20;100769.03;;;6.15;88.00
67840;BME280;54636;51.684;5.142;2023-04-15T01:30:46;100766.06;;;6.13;87.83
67840;BME280;54636;51.684;5.142;2023-04-15T01:33:12;100807.56;;;6.43;88.08
67840;BME280;54636;51.684;5.142;2023-04-15T01:35:37;100808.75;;;6.42;87.87
67840;BME280;54636;51.684;5.142;2023-04-15T01:38:07;100798.56;;;6.37;87.77
67840;BME280;54636;51.684;5.142;2023-04-15T01:40:34;100797.66;;;6.31;88.08
67840;BME280;54636;51.684;5.142;2023-04-15T01:43:00;100800.06;;;6.38;87.93
67840;BME280;54636;51.684;5.142;2023-04-15T01:45:26;100764.25;;;6.10;88.09
67840;BME280;54636;51.684;5.142;2023-04-15T01:47:52;100787.63;;;6.22;87.88
67840;BME280;54636;51.684;5.142;2023-04-15T01:50:17;100806.22;;;6.29;88.74
67840;BME280;54636;51.684;5.142;2023-04-15T01:52:44;100807.41;;;6.28;88.85
67840;BME280;54636;51.684;5.142;2023-04-15T01:55:12;100778.50;;;6.10;88.72
67840;BME280;54636;51.684;5.142;2023-04-15T01:57:38;100798.88;;;6.20;89.35
67840;BME280;54636;51.684;5.142;2023-04-15T02:00:04;100799.75;;;6.17;89.48
67840;BME280;54636;51.684;5.142;2023-04-15T02:02:32;100802.75;;;6.10;89.56
67840;BME280;54636;51.684;5.142;2023-04-15T02:04:57;100811.16;;;6.12;90.01
67840;BME280;54636;51.684;5.142;2023-04-15T02:07:23;100783.22;;;5.88;90.63
67840;BME280;54636;51.684;5.142;2023-04-15T02:09:48;100814.28;;;6.02;90.53
67840;BME280;54636;51.684;5.142;2023-04-15T02:12:14;100808.28;;;5.98;91.18
67840;BME280;54636;51.684;5.142;2023-04-15T02:14:39;100789.25;;;5.83;91.60
67840;BME280;54636;51.684;5.142;2023-04-15T02:17:05;100805.88;;;5.90;91.87
67840;BME280;54636;51.684;5.142;2023-04-15T02:19:34;100815.59;;;5.88;92.31
67840;BME280;54636;51.684;5.142;2023-04-15T02:22:00;100791.94;;;5.74;92.31
67840;BME280;54636;51.684;5.142;2023-04-15T02:24:27;100806.91;;;5.75;92.69
67840;BME280;54636;51.684;5.142;2023-04-15T02:26:53;100800.91;;;5.71;92.52
67840;BME280;54636;51.684;5.142;2023-04-15T02:29:18;100803.47;;;5.83;93.25
67840;BME280;54636;51.684;5.142;2023-04-15T02:31:43;100802.72;;;5.83;92.82
67840;BME280;54636;51.684;5.142;2023-04-15T02:34:09;100823.56;;;6.01;92.67
67840;BME280;54636;51.684;5.142;2023-04-15T02:36:35;100832.56;;;6.07;92.44
67840;BME280;54636;51.684;5.142;2023-04-15T02:39:01;100834.38;;;6.10;92.89
67840;BME280;54636;51.684;5.142;2023-04-15T02:41:27;100835.25;;;6.07;91.99
67840;BME280;54636;51.684;5.142;2023-04-15T02:43:54;100841.72;;;6.09;93.06
67840;BME280;54636;51.684;5.142;2023-04-15T02:46:19;100829.72;;;6.01;93.16
67840;BME280;54636;51.684;5.142;2023-04-15T02:48:47;100843.03;;;6.05;92.80
67840;BME280;54636;51.684;5.142;2023-04-15T02:51:17;100839.44;;;5.99;92.96
67840;BME280;54636;51.684;5.142;2023-04-15T02:53:47;100848.72;;;5.98;93.50
67840;BME280;54636;51.684;5.142;2023-04-15T02:56:13;100842.44;;;5.91;94.40
67840;BME280;54636;51.684;5.142;2023-04-15T02:58:40;100849.75;;;5.91;95.09
67840;BME280;54636;51.684;5.142;2023-04-15T03:01:06;100847.34;;;5.84;95.34
67840;BME280;54636;51.684;5.142;2023-04-15T03:03:33;100843.75;;;5.78;95.24
67840;BME280;54636;51.684;5.142;2023-04-15T03:05:58;100854.53;;;5.78;95.51
67840;BME280;54636;51.684;5.142;2023-04-15T03:08:23;100820.03;;;5.54;95.89
67840;BME280;54636;51.684;5.142;2023-04-15T03:10:49;100841.75;;;5.60;95.74
67840;BME280;54636;51.684;5.142;2023-04-15T03:13:16;100851.47;;;5.57;96.78
67840;BME280;54636;51.684;5.142;2023-04-15T03:15:42;100802.09;;;5.11;97.45
67840;BME280;54636;51.684;5.142;2023-04-15T03:18:07;100842.88;;;5.41;97.83
67840;BME280;54636;51.684;5.142;2023-04-15T03:20:33;100865.47;;;5.43;98.53
67840;BME280;54636;51.684;5.142;2023-04-15T03:23:00;100859.63;;;5.36;98.21
67840;BME280;54636;51.684;5.142;2023-04-15T03:25:25;100863.63;;;5.31;98.39
67840;BME280;54636;51.684;5.142;2023-04-15T03:27:51;100847.41;;;5.13;98.67
67840;BME280;54636;51.684;5.142;2023-04-15T03:30:16;100862.06;;;5.12;99.29
67840;BME280;54636;51.684;5.142;2023-04-15T03:32:42;100856.94;;;5.05;99.64
67840;BME280;54636;51.684;5.142;2023-04-15T03:35:07;100855.31;;;5.07;100.00
67840;BME280;54636;51.684;5.142;2023-04-15T03:37:33;100870.00;;;5.15;100.00
67840;BME280;54636;51.684;5.142;2023-04-15T03:39:59;100874.97;;;5.17;100.00
67840;BME280;54636;51.684;5.142;2023-04-15T03:42:24;100881.41;;;5.19;100.00
67840;BME280;54636;51.684;5.142;2023-04-15T03:44:50;100884.53;;;5.18;100.00
67840;BME280;54636;51.684;5.142;2023-04-15T03:47:15;100891.41;;;5.19;100.00
67840;BME280;54636;51.684;5.142;2023-04-15T03:49:40;100884.84;;;5.20;100.00
67840;BME280;54636;51.684;5.142;2023-04-15T03:52:06;100894.25;;;5.15;100.00
67840;BME280;54636;51.684;5.142;2023-04-15T03:54:31;100900.25;;;5.19;100.00
67840;BME280;54636;51.684;5.142;2023-04-15T03:56:57;100900.69;;;5.18;100.00
67840;BME280;54636;51.684;5.142;2023-04-15T03:59:22;100894.56;;;5.17;100.00
67840;BME280;54636;51.684;5.142;2023-04-15T04:01:48;100909.81;;;5.20;100.00
67840;BME280;54636;51.684;5.142;2023-04-15T04:04:13;100907.09;;;5.20;100.00
67840;BME280;54636;51.684;5.142;2023-04-15T04:06:38;100899.03;;;5.20;100.00
67840;BME280;54636;51.684;5.142;2023-04-15T04:09:04;100911.31;;;5.21;100.00
67840;BME280;54636;51.684;5.142;2023-04-15T04:11:29;100900.38;;;5.16;100.00
67840;BME280;54636;51.684;5.142;2023-04-15T04:13:55;100905.88;;;5.12;100.00
67840;BME280;54636;51.684;5.142;2023-04-15T04:16:21;100924.78;;;5.21;100.00
67840;BME280;54636;51.684;5.142;2023-04-15T04:18:46;100926.72;;;5.21;100.00
67840;BME280;54636;51.684;5.142;2023-04-15T04:21:12;100925.53;;;5.22;100.00
67840;BME280;54636;51.684;5.142;2023-04-15T04:23:37;100923.53;;;5.13;100.00
67840;BME280;54636;51.684;5.142;2023-04-15T04:26:02;100934.78;;;5.21;100.00
67840;BME280;54636;51.684;5.142;2023-04-15T04:28:28;100937.94;;;5.19;100.00
67840;BME280;54636;51.684;5.142;2023-04-15T04:30:53;100930.44;;;5.14;100.00
67840;BME280;54636;51.684;5.142;2023-04-15T04:33:19;100952.63;;;5.27;100.00
67840;BME280;54636;51.684;5.142;2023-04-15T04:35:44;100921.09;;;5.06;100.00
67840;BME280;54636;51.684;5.142;2023-04-15T04:38:09;100958.47;;;5.26;100.00
67840;BME280;54636;51.684;5.142;2023-04-15T04:40:35;100958.16;;;5.24;100.00
67840;BME280;54636;51.684;5.142;2023-04-15T04:43:00;100960.84;;;5.24;100.00
67840;BME280;54636;51.684;5.142;2023-04-15T04:45:26;100946.91;;;5.16;100.00
67840;BME280;54636;51.684;5.142;2023-04-15T04:47:51;100966.22;;;5.24;100.00
67840;BME280;54636;51.684;5.142;2023-04-15T04:50:17;100960.25;;;5.20;100.00
67840;BME280;54636;51.684;5.142;2023-04-15T04:52:42;100976.00;;;5.30;100.00
67840;BME280;54636;51.684;5.142;2023-04-15T04:55:07;100951.53;;;5.16;100.00
67840;BME280;54636;51.684;5.142;2023-04-15T04:57:33;100969.66;;;5.24;100.00
67840;BME280;54636;51.684;5.142;2023-04-15T05:00:00;100969.50;;;5.19;100.00
67840;BME280;54636;51.684;5.142;2023-04-15T05:02:27;100973.69;;;5.20;100.00
67840;BME280;54636;51.684;5.142;2023-04-15T05:04:52;100986.44;;;5.28;100.00
67840;BME280;54636;51.684;5.142;2023-04-15T05:07:19;100991.41;;;5.30;100.00
67840;BME280;54636;51.684;5.142;2023-04-15T05:09:45;101000.41;;;5.36;100.00
67840;BME280;54636;51.684;5.142;2023-04-15T05:12:10;100971.44;;;5.18;100.00
67840;BME280;54636;51.684;5.142;2023-04-15T05:14:41;101005.19;;;5.32;100.00
67840;BME280;54636;51.684;5.142;2023-04-15T05:17:07;101010.00;;;5.37;100.00
67840;BME280;54636;51.684;5.142;2023-04-15T05:19:33;101004.00;;;5.33;100.00
67840;BME280;54636;51.684;5.142;2023-04-15T05:21:59;101016.16;;;5.38;100.00
67840;BME280;54636;51.684;5.142;2023-04-15T05:24:25;101017.22;;;5.40;100.00
67840;BME280;54636;51.684;5.142;2023-04-15T05:26:51;101029.50;;;5.41;100.00
67840;BME280;54636;51.684;5.142;2023-04-15T05:29:16;101025.72;;;5.39;100.00
67840;BME280;54636;51.684;5.142;2023-04-15T05:31:42;101029.50;;;5.41;100.00
67840;BME280;54636;51.684;5.142;2023-04-15T05:34:07;101027.41;;;5.45;100.00
67840;BME280;54636;51.684;5.142;2023-04-15T05:36:33;101031.69;;;5.55;100.00
67840;BME280;54636;51.684;5.142;2023-04-15T05:38:58;101041.38;;;5.75;100.00
67840;BME280;54636;51.684;5.142;2023-04-15T05:41:23;101032.72;;;5.80;100.00
67840;BME280;54636;51.684;5.142;2023-04-15T05:43:49;101050.19;;;6.28;100.00
67840;BME280;54636;51.684;5.142;2023-04-15T05:46:14;101046.94;;;6.51;100.00
67840;BME280;54636;51.684;5.142;2023-04-15T05:48:40;101051.00;;;6.56;100.00
67840;BME280;54636;51.684;5.142;2023-04-15T05:51:05;101052.69;;;6.81;100.00
67840;BME280;54636;51.684;5.142;2023-04-15T05:53:31;101052.25;;;7.01;100.00
67840;BME280;54636;51.684;5.142;2023-04-15T05:55:56;101067.09;;;7.42;98.10
67840;BME280;54636;51.684;5.142;2023-04-15T05:58:22;101072.91;;;7.77;96.29
67840;BME280;54636;51.684;5.142;2023-04-15T06:00:47;101070.00;;;7.99;94.03
67840;BME280;54636;51.684;5.142;2023-04-15T06:03:12;101082.38;;;8.33;92.25
67840;BME280;54636;51.684;5.142;2023-04-15T06:05:38;101090.09;;;8.49;90.95
67840;BME280;54636;51.684;5.142;2023-04-15T06:08:05;101094.84;;;8.63;89.36
67840;BME280;54636;51.684;5.142;2023-04-15T06:10:30;101088.28;;;8.55;88.54
67840;BME280;54636;51.684;5.142;2023-04-15T06:13:00;101108.56;;;8.59;89.35
67840;BME280;54636;51.684;5.142;2023-04-15T06:15:25;101096.44;;;8.46;89.31
67840;BME280;54636;51.684;5.142;2023-04-15T06:17:51;101117.63;;;8.47;89.55
67840;BME280;54636;51.684;5.142;2023-04-15T06:20:16;101098.69;;;8.47;88.67
67840;BME280;54636;51.684;5.142;2023-04-15T06:22:42;101123.75;;;8.57;88.47
67840;BME280;54636;51.684;5.142;2023-04-15T06:25:07;101129.78;;;8.52;88.84
67840;BME280;54636;51.684;5.142;2023-04-15T06:27:33;101133.53;;;8.54;89.34
67840;BME280;54636;51.684;5.142;2023-04-15T06:29:58;101134.75;;;8.86;89.24
67840;BME280;54636;51.684;5.142;2023-04-15T06:32:24;101135.41;;;9.20;87.21
67840;BME280;54636;51.684;5.142;2023-04-15T06:34:50;101148.00;;;9.32;85.79
67840;BME280;54636;51.684;5.142;2023-04-15T06:37:15;101150.13;;;9.28;86.50
67840;BME280;54636;51.684;5.142;2023-04-15T06:39:41;101154.72;;;9.37;86.44
67840;BME280;54636;51.684;5.142;2023-04-15T06:42:07;101155.28;;;9.65;86.08
67840;BME280;54636;51.684;5.142;2023-04-15T06:44:33;101165.88;;;10.07;83.55
67840;BME280;54636;51.684;5.142;2023-04-15T06:46:59;101171.19;;;10.45;82.58
67840;BME280;54636;51.684;5.142;2023-04-15T06:49:24;101172.72;;;10.81;79.68
67840;BME280;54636;51.684;5.142;2023-04-15T06:51:49;101182.25;;;10.92;81.14
67840;BME280;54636;51.684;5.142;2023-04-15T06:54:15;101177.16;;;10.99;79.27
67840;BME280;54636;51.684;5.142;2023-04-15T06:56:41;101173.63;;;10.93;77.88
67840;BME280;54636;51.684;5.142;2023-04-15T06:59:07;101182.94;;;10.86;78.10
67840;BME280;54636;51.684;5.142;2023-04-15T07:01:33;101192.59;;;10.73;78.81
67840;BME280;54636;51.684;5.142;2023-04-15T07:03:58;101201.06;;;10.60;80.27
67840;BME280;54636;51.684;5.142;2023-04-15T07:06:23;101183.84;;;10.19;80.68
67840;BME280;54636;51.684;5.142;2023-04-15T07:08:50;101205.06;;;9.91;82.97
67840;BME280;54636;51.684;5.142;2023-04-15T07:11:15;101205.13;;;9.67;83.67
67840;BME280;54636;51.684;5.142;2023-04-15T07:13:41;101211.53;;;9.55;85.85
67840;BME280;54636;51.684;5.142;2023-04-15T07:16:07;101209.69;;;9.37;85.86
67840;BME280;54636;51.684;5.142;2023-04-15T07:18:33;101202.13;;;9.17;87.08
67840;BME280;54636;51.684;5.142;2023-04-15T07:20:58;101231.44;;;9.28;86.82
67840;BME280;54636;51.684;5.142;2023-04-15T07:23:24;101226.03;;;9.28;87.19
67840;BME280;54636;51.684;5.142;2023-04-15T07:25:49;101231.72;;;9.30;88.08
67840;BME280;54636;51.684;5.142;2023-04-15T07:28:16;101222.56;;;9.28;88.04
67840;BME280;54636;51.684;5.142;2023-04-15T07:30:41;101245.06;;;9.43;86.82
67840;BME280;54636;51.684;5.142;2023-04-15T07:33:07;101247.94;;;9.39;86.81
67840;BME280;54636;51.684;5.142;2023-04-15T07:35:32;101228.28;;;9.30;86.45
67840;BME280;54636;51.684;5.142;2023-04-15T07:37:57;101264.44;;;9.50;85.99
67840;BME280;54636;51.684;5.142;2023-04-15T07:40:23;101252.22;;;9.55;85.12
67840;BME280;54636;51.684;5.142;2023-04-15T07:42:48;101258.97;;;9.60;84.63
67840;BME280;54636;51.684;5.142;2023-04-15T07:45:14;101257.41;;;9.68;85.44
67840;BME280;54636;51.684;5.142;2023-04-15T07:47:40;101267.06;;;9.83;85.15
67840;BME280;54636;51.684;5.142;2023-04-15T07:50:08;101268.84;;;9.86;84.62
67840;BME280;54636;51.684;5.142;2023-04-15T07:52:34;101274.38;;;9.92;84.86
67840;BME280;54636;51.684;5.142;2023-04-15T07:55:07;101273.09;;;10.02;84.24
67840;BME280;54636;51.684;5.142;2023-04-15T07:57:36;101280.53;;;10.16;82.48
67840;BME280;54636;51.684;5.142;2023-04-15T08:00:02;101271.19;;;10.17;83.46
67840;BME280;54636;51.684;5.142;2023-04-15T08:02:29;101305.19;;;10.42;82.95
67840;BME280;54636;51.684;5.142;2023-04-15T08:04:54;101294.16;;;10.46;81.94
67840;BME280;54636;51.684;5.142;2023-04-15T08:07:20;101290.69;;;10.45;81.39
67840;BME280;54636;51.684;5.142;2023-04-15T08:09:45;101306.16;;;10.54;79.20
67840;BME280;54636;51.684;5.142;2023-04-15T08:12:11;101321.22;;;10.40;80.10
67840;BME280;54636;51.684;5.142;2023-04-15T08:14:38;101324.41;;;10.39;80.29
67840;BME280;54636;51.684;5.142;2023-04-15T08:17:04;101318.13;;;10.47;80.89
67840;BME280;54636;51.684;5.142;2023-04-15T08:19:30;101328.06;;;10.50;81.52
67840;BME280;54636;51.684;5.142;2023-04-15T08:21:55;101317.88;;;10.75;81.88
67840;BME280;54636;51.684;5.142;2023-04-15T08:24:21;101325.63;;;10.97;81.40
67840;BME280;54636;51.684;5.142;2023-04-15T08:26:47;101324.56;;;11.09;79.34
67840;BME280;54636;51.684;5.142;2023-04-15T08:29:12;101325.50;;;11.20;78.26
67840;BME280;54636;51.684;5.142;2023-04-15T08:31:38;101287.97;;;10.89;77.75
67840;BME280;54636;51.684;5.142;2023-04-15T08:34:03;101343.88;;;11.11;77.51
67840;BME280;54636;51.684;5.142;2023-04-15T08:36:29;101339.47;;;11.13;76.44
67840;BME280;54636;51.684;5.142;2023-04-15T08:38:55;101317.09;;;11.04;76.99
67840;BME280;54636;51.684;5.142;2023-04-15T08:41:22;101344.88;;;11.28;76.17
67840;BME280;54636;51.684;5.142;2023-04-15T08:43:53;101341.59;;;11.39;75.35
67840;BME280;54636;51.684;5.142;2023-04-15T08:46:21;101342.13;;;11.43;74.83
67840;BME280;54636;51.684;5.142;2023-04-15T08:48:47;101352.63;;;11.50;73.55
67840;BME280;54636;51.684;5.142;2023-04-15T08:51:12;101359.84;;;11.53;74.02
67840;BME280;54636;51.684;5.142;2023-04-15T08:53:42;101364.22;;;11.65;73.24
67840;BME280;54636;51.684;5.142;2023-04-15T08:56:08;101359.09;;;11.73;73.49
67840;BME280;54636;51.684;5.142;2023-04-15T08:58:35;101375.13;;;11.85;72.47
67840;BME280;54636;51.684;5.142;2023-04-15T09:01:01;101387.88;;;11.94;71.95
67840;BME280;54636;51.684;5.142;2023-04-15T09:03:27;101377.81;;;12.00;71.95
67840;BME280;54636;51.684;5.142;2023-04-15T09:05:53;101372.91;;;12.04;69.88
67840;BME280;54636;51.684;5.142;2023-04-15T09:08:19;101386.03;;;12.26;66.53
67840;BME280;54636;51.684;5.142;2023-04-15T09:10:44;101404.50;;;12.16;63.22
67840;BME280;54636;51.684;5.142;2023-04-15T09:13:10;101415.38;;;12.16;61.83
67840;BME280;54636;51.684;5.142;2023-04-15T09:15:39;101411.63;;;12.14;62.98
67840;BME280;54636;51.684;5.142;2023-04-15T09:18:05;101419.69;;;12.23;63.39
67840;BME280;54636;51.684;5.142;2023-04-15T09:20:38;101399.31;;;12.18;62.44
67840;BME280;54636;51.684;5.142;2023-04-15T09:23:11;101405.97;;;12.38;62.70
67840;BME280;54636;51.684;5.142;2023-04-15T09:25:39;101409.78;;;12.46;60.64
67840;BME280;54636;51.684;5.142;2023-04-15T09:28:04;101402.75;;;12.39;62.30
67840;BME280;54636;51.684;5.142;2023-04-15T09:30:30;101417.66;;;12.44;62.79
67840;BME280;54636;51.684;5.142;2023-04-15T09:32:57;101411.75;;;12.45;62.07
67840;BME280;54636;51.684;5.142;2023-04-15T09:35:25;101427.81;;;12.43;62.74
67840;BME280;54636;51.684;5.142;2023-04-15T09:37:51;101433.94;;;12.59;61.81
67840;BME280;54636;51.684;5.142;2023-04-15T09:40:36;101430.25;;;12.62;62.75
67840;BME280;54636;51.684;5.142;2023-04-15T09:43:04;101424.75;;;12.56;61.63
67840;BME280;54636;51.684;5.142;2023-04-15T09:45:30;101447.97;;;12.72;61.18
67840;BME280;54636;51.684;5.142;2023-04-15T09:47:58;101438.78;;;12.69;60.07
67840;BME280;54636;51.684;5.142;2023-04-15T09:50:26;101452.75;;;12.57;60.51
67840;BME280;54636;51.684;5.142;2023-04-15T09:52:52;101438.09;;;12.54;61.54
67840;BME280;54636;51.684;5.142;2023-04-15T09:55:18;101422.38;;;12.43;60.43
67840;BME280;54636;51.684;5.142;2023-04-15T09:57:44;101462.88;;;12.76;58.55
67840;BME280;54636;51.684;5.142;2023-04-15T10:00:11;101449.84;;;12.86;58.62
67840;BME280;54636;51.684;5.142;2023-04-15T10:02:39;101453.94;;;13.02;57.69
67840;BME280;54636;51.684;5.142;2023-04-15T10:05:05;101454.81;;;13.13;59.46
67840;BME280;54636;51.684;5.142;2023-04-15T10:07:31;101450.75;;;13.29;59.29
67840;BME280;54636;51.684;5.142;2023-04-15T10:09:58;101452.53;;;13.32;59.45
67840;BME280;54636;51.684;5.142;2023-04-15T10:12:25;101470.03;;;13.51;59.30
67840;BME280;54636;51.684;5.142;2023-04-15T10:14:54;101462.88;;;13.54;56.72
67840;BME280;54636;51.684;5.142;2023-04-15T10:17:21;101458.47;;;13.31;56.51
67840;BME280;54636;51.684;5.142;2023-04-15T10:19:49;101479.63;;;13.41;56.72
67840;BME280;54636;51.684;5.142;2023-04-15T10:22:17;101472.16;;;13.36;56.99
67840;BME280;54636;51.684;5.142;2023-04-15T10:24:43;101487.03;;;13.35;56.65
67840;BME280;54636;51.684;5.142;2023-04-15T10:27:09;101483.75;;;13.31;53.61
67840;BME280;54636;51.684;5.142;2023-04-15T10:29:35;101487.88;;;13.47;52.64
67840;BME280;54636;51.684;5.142;2023-04-15T10:32:01;101465.91;;;13.30;54.74
67840;BME280;54636;51.684;5.142;2023-04-15T10:34:28;101491.88;;;13.51;54.33
67840;BME280;54636;51.684;5.142;2023-04-15T10:36:57;101480.94;;;13.20;54.85
67840;BME280;54636;51.684;5.142;2023-04-15T10:39:43;101482.44;;;13.21;54.41
67840;BME280;54636;51.684;5.142;2023-04-15T10:42:12;101501.44;;;13.15;54.33
67840;BME280;54636;51.684;5.142;2023-04-15T10:44:42;101485.84;;;13.16;55.08
67840;BME280;54636;51.684;5.142;2023-04-15T10:47:13;101492.09;;;13.22;54.63
67840;BME280;54636;51.684;5.142;2023-04-15T10:49:47;101478.03;;;13.29;55.07
67840;BME280;54636;51.684;5.142;2023-04-15T10:52:14;101493.66;;;13.29;54.76
67840;BME280;54636;51.684;5.142;2023-04-15T10:54:40;101480.03;;;13.29;54.48
67840;BME280;54636;51.684;5.142;2023-04-15T10:57:08;101488.22;;;13.60;53.86
67840;BME280;54636;51.684;5.142;2023-04-15T11:03:33;101500.47;;;13.76;55.14
67840;BME280;54636;51.684;5.142;2023-04-15T11:08:07;101497.97;;;13.72;53.98
67840;BME280;54636;51.684;5.142;2023-04-15T11:13:01;101514.25;;;13.93;53.28
67840;BME280;54636;51.684;5.142;2023-04-15T11:15:29;101508.75;;;13.87;53.81
67840;BME280;54636;51.684;5.142;2023-04-15T11:20:40;101504.72;;;13.77;54.95
67840;BME280;54636;51.684;5.142;2023-04-15T11:23:07;101491.84;;;13.83;55.17
67840;BME280;54636;51.684;5.142;2023-04-15T11:25:34;101508.59;;;14.02;55.30
67840;BME280;54636;51.684;5.142;2023-04-15T11:28:03;101512.88;;;14.08;55.45
67840;BME280;54636;51.684;5.142;2023-04-15T11:30:33;101514.41;;;14.15;56.17
67840;BME280;54636;51.684;5.142;2023-04-15T11:33:02;101517.94;;;14.27;55.89
67840;BME280;54636;51.684;5.142;2023-04-15T11:35:28;101522.66;;;14.26;53.89
67840;BME280;54636;51.684;5.142;2023-04-15T11:37:54;101533.59;;;14.26;54.81
67840;BME280;54636;51.684;5.142;2023-04-15T11:40:24;101527.97;;;14.04;55.35
67840;BME280;54636;51.684;5.142;2023-04-15T11:43:13;101515.34;;;14.06;56.54
67840;BME280;54636;51.684;5.142;2023-04-15T11:45:57;101539.28;;;14.23;55.35
67840;BME280;54636;51.684;5.142;2023-04-15T11:48:27;101541.66;;;14.04;55.09
67840;BME280;54636;51.684;5.142;2023-04-15T11:51:13;101537.00;;;14.15;57.05
67840;BME280;54636;51.684;5.142;2023-04-15T11:53:44;101546.28;;;14.35;53.20
67840;BME280;54636;51.684;5.142;2023-04-15T11:56:16;101535.09;;;14.27;52.75
67840;BME280;54636;51.684;5.142;2023-04-15T11:58:42;101535.31;;;14.24;53.91
67840;BME280;54636;51.684;5.142;2023-04-15T12:01:09;101544.28;;;14.30;54.21
67840;BME280;54636;51.684;5.142;2023-04-15T12:03:37;101542.53;;;14.27;53.22
67840;BME280;54636;51.684;5.142;2023-04-15T12:06:24;101547.00;;;14.24;54.06
67840;BME280;54636;51.684;5.142;2023-04-15T12:09:09;101556.34;;;14.12;54.44
67840;BME280;54636;51.684;5.142;2023-04-15T12:11:42;101558.69;;;14.30;55.05
67840;BME280;54636;51.684;5.142;2023-04-15T12:14:11;101554.41;;;14.61;53.19
67840;BME280;54636;51.684;5.142;2023-04-15T12:16:40;101577.59;;;14.76;53.71
67840;BME280;54636;51.684;5.142;2023-04-15T12:19:11;101562.16;;;14.68;52.80
67840;BME280;54636;51.684;5.142;2023-04-15T12:21:38;101556.72;;;14.36;53.77
67840;BME280;54636;51.684;5.142;2023-04-15T12:24:07;101559.56;;;14.47;54.94
67840;BME280;54636;51.684;5.142;2023-04-15T12:26:44;101569.84;;;14.69;54.88
67840;BME280;54636;51.684;5.142;2023-04-15T12:29:11;101581.56;;;14.75;54.08
67840;BME280;54636;51.684;5.142;2023-04-15T12:31:46;101578.91;;;14.44;54.15
67840;BME280;54636;51.684;5.142;2023-04-15T12:34:13;101583.63;;;14.43;54.33
67840;BME280;54636;51.684;5.142;2023-04-15T12:36:38;101590.78;;;14.41;56.42
67840;BME280;54636;51.684;5.142;2023-04-15T12:39:04;101596.56;;;14.43;55.02
67840;BME280;54636;51.684;5.142;2023-04-15T12:41:30;101603.25;;;14.42;55.82
67840;BME280;54636;51.684;5.142;2023-04-15T12:43:55;101623.41;;;14.44;56.62
67840;BME280;54636;51.684;5.142;2023-04-15T12:46:20;101612.19;;;14.42;56.72
67840;BME280;54636;51.684;5.142;2023-04-15T12:48:46;101610.06;;;14.58;57.00
67840;BME280;54636;51.684;5.142;2023-04-15T12:51:13;101596.25;;;14.41;56.37
67840;BME280;54636;51.684;5.142;2023-04-15T12:53:38;101605.75;;;14.45;56.19
67840;BME280;54636;51.684;5.142;2023-04-15T12:56:04;101620.53;;;14.65;53.55
67840;BME280;54636;51.684;5.142;2023-04-15T12:58:29;101605.88;;;14.62;52.72
67840;BME280;54636;51.684;5.142;2023-04-15T13:00:54;101611.31;;;14.62;52.35
67840;BME280;54636;51.684;5.142;2023-04-15T13:03:21;101626.69;;;14.54;52.92